Time;durP1;ratioP1;P1;durP2;ratioP2;P2;SDS_P1;SDS_P2;PMS_P1;PMS_P2;Temp;Humidity;BMP_temperature;BMP_pressure;BME280_temperature;BME280_humidity;BME280_pressure;Samples;Min_cycle;Max_cycle;Signal;HPM_P1;HPM_P2
2022/01/06 00:01:13;;;;;;;17.23;6.53;;;;;;;0.22;100.00;98494.84;5140265;22;20252;-80
2022/01/06 00:03:39;;;;;;;14.67;6.73;;;;;;;0.21;100.00;98487.94;5126348;22;20250;-76
2022/01/06 00:06:09;;;;;;;22.97;7.93;;;;;;;0.32;100.00;98492.28;5092884;22;20266;-85
2022/01/06 00:08:37;;;;;;;19.53;7.73;;;;;;;0.52;100.00;98488.00;5134302;22;20295;-79
2022/01/06 00:11:08;;;;;;;18.70;7.20;;;;;;;0.58;100.00;98484.84;5118468;22;20209;-81
2022/01/06 00:13:50;;;;;;;15.93;7.00;;;;;;;0.63;100.00;98485.28;5119486;22;20206;-79
2022/01/06 00:16:35;;;;;;;17.50;7.07;;;;;;;0.68;100.00;98484.88;5138545;22;20202;-81
2022/01/06 00:24:16;;;;;;;23.43;8.83;;;;;;;0.80;100.00;98483.88;5127332;22;20423;-82
2022/01/06 00:26:43;;;;;;;21.47;8.57;;;;;;;0.85;100.00;98486.91;5097404;22;20204;-77
2022/01/06 00:29:10;;;;;;;20.50;8.53;;;;;;;0.90;100.00;98478.66;5124657;22;20280;-83
2022/01/06 00:31:37;;;;;;;24.80;9.70;;;;;;;0.92;100.00;98476.75;5125639;22;20275;-77
2022/01/06 00:34:05;;;;;;;18.93;9.87;;;;;;;0.97;100.00;98485.03;5100160;22;20201;-81
2022/01/06 00:36:34;;;;;;;22.10;9.57;;;;;;;0.88;100.00;98480.59;5121881;22;20326;-81
2022/01/06 00:39:00;;;;;;;23.77;9.40;;;;;;;0.97;100.00;98485.03;5113319;22;20685;-79
2022/01/06 00:41:27;;;;;;;19.27;8.70;;;;;;;0.98;100.00;98476.19;5154194;22;20199;-82
2022/01/06 00:43:54;;;;;;;24.83;10.03;;;;;;;0.97;100.00;98475.38;5156967;22;20250;-78
2022/01/06 00:46:20;;;;;;;24.13;9.30;;;;;;;1.01;99.48;98474.16;5146954;22;20463;-79
2022/01/06 00:48:47;;;;;;;24.43;9.13;;;;;;;1.08;99.03;98474.47;5155375;22;20277;-79
2022/01/06 00:51:13;;;;;;;21.00;8.20;;;;;;;1.12;98.87;98482.88;5143023;22;20618;-78
2022/01/06 00:53:40;;;;;;;20.20;8.13;;;;;;;1.10;98.24;98469.91;5147915;22;20202;-82
2022/01/06 00:56:07;;;;;;;21.03;7.73;;;;;;;1.11;98.84;98478.59;5107293;22;25351;-88
2022/01/06 00:58:33;;;;;;;18.70;8.10;;;;;;;1.22;97.83;98476.69;5123385;22;20309;-78
2022/01/06 01:01:00;;;;;;;19.50;7.17;;;;;;;1.26;97.31;98478.09;5135919;22;21410;-79
2022/01/06 01:03:27;;;;;;;20.83;7.67;;;;;;;1.21;97.72;98482.06;5127744;22;20209;-79
2022/01/06 01:05:55;;;;;;;17.87;6.53;;;;;;;1.23;97.57;98473.09;5146790;22;20469;-78
2022/01/06 01:08:23;;;;;;;18.80;7.03;;;;;;;1.30;97.68;98476.03;5158123;22;20201;-76
2022/01/06 01:10:51;;;;;;;17.87;7.47;;;;;;;1.34;97.17;98473.97;5097200;23;20631;-83
2022/01/06 01:13:27;;;;;;;14.83;6.60;;;;;;;1.33;97.50;98477.53;5117455;22;20283;-79
2022/01/06 01:15:57;;;;;;;13.93;6.53;;;;;;;1.33;97.04;98470.50;5135836;22;20198;-83
2022/01/06 01:18:24;;;;;;;16.47;7.17;;;;;;;1.33;97.02;98477.53;5136506;22;20209;-76
2022/01/06 01:20:52;;;;;;;14.80;6.00;;;;;;;1.30;97.19;98464.72;5153943;22;21365;-78
2022/01/06 01:23:23;;;;;;;15.17;7.20;;;;;;;1.37;97.13;98471.09;5110244;23;20206;-87
2022/01/06 01:25:50;;;;;;;12.70;6.03;;;;;;;1.40;97.16;98476.03;5112333;22;20205;-80
2022/01/06 01:28:17;;;;;;;16.20;6.43;;;;;;;1.42;96.93;98471.50;5103937;22;20245;-79
2022/01/06 01:31:19;;;;;;;16.80;6.53;;;;;;;1.44;97.09;98462.53;5126643;22;20201;-82
2022/01/06 01:33:46;;;;;;;15.60;6.27;;;;;;;1.43;96.90;98455.66;5115470;22;20491;-83
2022/01/06 01:36:13;;;;;;;17.50;6.43;;;;;;;1.51;96.69;98457.56;5104387;22;22832;-81
2022/01/06 01:38:39;;;;;;;14.10;5.63;;;;;;;1.54;96.40;98453.84;5118796;22;20316;-80
2022/01/06 01:41:08;;;;;;;12.30;5.80;;;;;;;1.56;96.79;98460.63;5126254;22;20810;-82
2022/01/06 01:43:35;;;;;;;16.17;5.87;;;;;;;1.60;96.61;98466.44;5125914;22;20213;-84
2022/01/06 01:46:10;;;;;;;16.57;6.57;;;;;;;1.50;97.74;98465.56;5108042;22;20210;-82
2022/01/06 01:48:40;;;;;;;14.40;5.97;;;;;;;1.52;98.72;98472.31;5116661;22;20492;-84
2022/01/06 01:51:09;;;;;;;14.00;6.60;;;;;;;1.36;100.00;98472.03;5133279;22;21738;-81
2022/01/06 01:53:36;;;;;;;15.10;6.10;;;;;;;1.24;100.00;98471.31;5091361;22;20280;-82
2022/01/06 01:56:08;;;;;;;15.93;6.63;;;;;;;1.14;100.00;98468.66;5096879;22;22948;-77
2022/01/06 01:58:36;;;;;;;17.10;6.57;;;;;;;1.00;100.00;98461.19;5102060;22;20264;-85
2022/01/06 02:01:03;;;;;;;13.87;6.90;;;;;;;1.00;100.00;98469.03;5113253;22;20202;-79
2022/01/06 02:03:31;;;;;;;15.17;7.47;;;;;;;1.02;100.00;98472.38;5119838;22;25477;-78
2022/01/06 02:05:57;;;;;;;12.43;6.30;;;;;;;1.09;100.00;98472.66;5115533;22;20245;-76
2022/01/06 02:08:24;;;;;;;14.90;7.03;;;;;;;1.11;100.00;98470.75;5116520;22;20208;-83
2022/01/06 02:10:50;;;;;;;17.10;6.53;;;;;;;1.17;100.00;98470.19;5130002;22;20256;-76
2022/01/06 02:13:17;;;;;;;15.43;6.53;;;;;;;1.16;100.00;98474.59;5125592;22;20202;-80
2022/01/06 02:15:43;;;;;;;14.03;7.10;;;;;;;1.19;100.00;98476.94;5140413;22;20209;-78
2022/01/06 02:18:10;;;;;;;11.63;6.33;;;;;;;1.23;100.00;98467.88;5128886;22;20227;-82
2022/01/06 02:20:36;;;;;;;16.43;6.80;;;;;;;1.22;100.00;98466.22;5110413;22;20201;-80
2022/01/06 02:23:03;;;;;;;18.67;7.77;;;;;;;1.23;100.00;98478.34;5115467;22;20208;-81
2022/01/06 02:25:31;;;;;;;16.10;7.00;;;;;;;1.25;100.00;98473.81;5125643;22;20206;-81
2022/01/06 02:28:03;;;;;;;12.80;6.57;;;;;;;1.29;100.00;98474.38;5130642;22;20208;-78
2022/01/06 02:30:35;;;;;;;12.30;6.10;;;;;;;1.27;100.00;98473.69;5148835;22;20403;-78
2022/01/06 02:33:02;;;;;;;10.70;6.30;;;;;;;1.31;100.00;98471.59;5127850;22;20205;-80
2022/01/06 02:35:30;;;;;;;15.90;7.07;;;;;;;1.30;100.00;98475.19;5095933;22;20198;-77
2022/01/06 02:37:57;;;;;;;13.77;6.00;;;;;;;1.31;100.00;98466.38;5112202;22;25236;-80
2022/01/06 02:40:25;;;;;;;12.90;6.83;;;;;;;1.26;100.00;98472.88;5090370;22;22829;-77
2022/01/06 02:42:55;;;;;;;22.27;7.00;;;;;;;1.27;100.00;98474.50;5116571;22;20197;-78
2022/01/06 02:45:26;;;;;;;17.93;7.23;;;;;;;1.26;100.00;98475.47;5118825;22;20943;-79
2022/01/06 02:47:53;;;;;;;13.30;6.63;;;;;;;1.33;100.00;98467.06;5116707;22;20202;-79
2022/01/06 02:50:19;;;;;;;13.50;6.20;;;;;;;1.36;100.00;98464.16;5076946;22;22342;-81
2022/01/06 02:52:46;;;;;;;17.70;6.20;;;;;;;1.37;100.00;98455.34;5116811;22;20285;-79
2022/01/06 02:55:14;;;;;;;15.37;6.43;;;;;;;1.42;100.00;98464.47;5116391;22;20643;-76
2022/01/06 02:57:43;;;;;;;16.67;6.87;;;;;;;1.39;100.00;98469.16;5118600;22;20206;-76
2022/01/06 03:00:15;;;;;;;15.90;6.37;;;;;;;1.39;100.00;98464.72;5096226;22;22774;-77
2022/01/06 03:02:43;;;;;;;13.00;6.53;;;;;;;1.40;100.00;98469.00;5142417;22;21204;-78
2022/01/06 03:05:10;;;;;;;13.50;5.93;;;;;;;1.40;100.00;98468.19;5107308;22;20579;-76
2022/01/06 03:07:37;;;;;;;18.03;7.03;;;;;;;1.35;100.00;98473.81;5123606;22;21709;-76
2022/01/06 03:10:07;;;;;;;14.00;6.57;;;;;;;1.34;100.00;98471.34;5132142;22;20248;-82
2022/01/06 03:12:39;;;;;;;14.73;7.47;;;;;;;1.34;100.00;98471.34;5101987;22;20270;-78
2022/01/06 03:15:11;;;;;;;12.37;6.90;;;;;;;1.27;100.00;98471.88;5116436;22;20471;-84
2022/01/06 03:17:39;;;;;;;15.60;7.40;;;;;;;1.30;100.00;98472.59;5123578;22;20206;-80
2022/01/06 03:20:08;;;;;;;14.93;7.33;;;;;;;1.33;100.00;98480.97;5110373;22;20211;-78
2022/01/06 03:22:34;;;;;;;14.47;6.67;;;;;;;1.29;100.00;98489.25;5124442;22;21189;-79
2022/01/06 03:25:01;;;;;;;16.80;6.90;;;;;;;1.31;100.00;98482.94;5112167;22;20220;-81
2022/01/06 03:27:29;;;;;;;13.27;7.47;;;;;;;1.30;100.00;98488.31;5129374;22;20216;-80
2022/01/06 03:29:56;;;;;;;15.37;6.30;;;;;;;1.29;100.00;98479.63;5122461;22;20372;-78
2022/01/06 03:32:22;;;;;;;16.77;6.40;;;;;;;1.34;100.00;98492.31;5116724;22;20209;-79
2022/01/06 03:34:49;;;;;;;12.63;7.00;;;;;;;1.35;100.00;98489.53;5136564;22;20206;-80
2022/01/06 03:37:16;;;;;;;18.63;7.60;;;;;;;1.31;100.00;98489.94;5106489;22;20227;-78
2022/01/06 03:39:43;;;;;;;17.77;7.63;;;;;;;1.31;100.00;98509.13;5139194;22;21057;-80
2022/01/06 03:42:11;;;;;;;18.67;7.90;;;;;;;1.29;100.00;98503.19;5121556;22;20647;-77
2022/01/06 03:44:38;;;;;;;16.77;8.17;;;;;;;1.32;100.00;98502.94;5119743;22;20766;-77
2022/01/06 03:47:06;;;;;;;17.47;8.00;;;;;;;1.30;100.00;98511.88;5111723;22;20231;-82
2022/01/06 03:49:33;;;;;;;15.13;8.10;;;;;;;1.36;100.00;98506.09;5100045;22;21899;-76
2022/01/06 03:52:00;;;;;;;16.37;8.63;;;;;;;1.35;100.00;98515.75;5147442;22;21692;-81
2022/01/06 03:54:26;;;;;;;16.87;7.10;;;;;;;1.36;100.00;98513.94;5101858;22;20515;-79
2022/01/06 03:56:53;;;;;;;16.93;8.57;;;;;;;1.37;100.00;98519.06;5120006;22;20762;-79
2022/01/06 03:59:20;;;;;;;18.07;8.33;;;;;;;1.32;100.00;98515.22;5125585;22;22028;-86
2022/01/06 04:01:46;;;;;;;15.27;7.40;;;;;;;1.32;100.00;98520.44;5114761;22;20205;-76
2022/01/06 04:04:13;;;;;;;14.20;7.47;;;;;;;1.31;100.00;98519.63;5121889;22;20198;-83
2022/01/06 04:06:40;;;;;;;21.87;8.30;;;;;;;1.32;100.00;98520.44;5096232;22;20256;-81
2022/01/06 04:09:07;;;;;;;16.20;8.73;;;;;;;1.34;100.00;98527.22;5132784;22;20206;-76
2022/01/06 04:11:34;;;;;;;18.17;8.60;;;;;;;1.31;100.00;98529.25;5111384;22;22225;-79
2022/01/06 04:14:00;;;;;;;17.07;8.90;;;;;;;1.30;100.00;98530.22;5117848;22;20427;-79
2022/01/06 04:16:29;;;;;;;15.87;8.97;;;;;;;1.30;100.00;98535.47;5095454;22;20619;-78
2022/01/06 04:18:56;;;;;;;15.20;8.90;;;;;;;1.28;100.00;98532.97;5099462;22;20221;-78
2022/01/06 04:21:22;;;;;;;15.23;9.37;;;;;;;1.27;100.00;98532.16;5125596;22;20208;-77
2022/01/06 04:23:49;;;;;;;21.63;9.00;;;;;;;1.26;100.00;98533.13;5116505;22;20198;-76
2022/01/06 04:26:15;;;;;;;13.70;8.30;;;;;;;1.24;100.00;98529.81;5117583;22;20206;-78
2022/01/06 04:28:42;;;;;;;18.57;8.80;;;;;;;1.22;100.00;98526.47;5094331;22;20205;-77
2022/01/06 04:31:10;;;;;;;16.17;8.63;;;;;;;1.19;100.00;98531.97;5093885;22;20201;-81
2022/01/06 04:33:36;;;;;;;17.27;8.90;;;;;;;1.23;100.00;98537.78;5105081;22;21385;-85
2022/01/06 04:36:03;;;;;;;16.83;9.10;;;;;;;1.23;100.00;98533.38;5118481;22;20202;-79
2022/01/06 04:38:31;;;;;;;16.80;9.47;;;;;;;1.24;100.00;98549.91;5113784;22;21269;-84
2022/01/06 04:40:58;;;;;;;21.17;9.03;;;;;;;1.24;100.00;98545.53;5060883;23;20203;-80
2022/01/06 04:43:25;;;;;;;19.90;9.13;;;;;;;1.26;100.00;98538.38;5081819;23;20210;-78
2022/01/06 04:45:51;;;;;;;17.07;9.63;;;;;;;1.32;100.00;98541.41;5078994;23;20213;-80
2022/01/06 04:48:18;;;;;;;16.23;9.27;;;;;;;1.27;100.00;98545.25;5082875;23;20199;-76
2022/01/06 04:50:44;;;;;;;20.00;9.90;;;;;;;1.26;100.00;98554.09;5074465;23;21539;-79
2022/01/06 04:53:11;;;;;;;15.93;9.90;;;;;;;1.28;100.00;98559.16;5075626;23;21228;-81
2022/01/06 04:55:37;;;;;;;19.90;10.57;;;;;;;1.23;100.00;98559.56;5068727;23;22380;-78
2022/01/06 04:58:04;;;;;;;16.13;9.60;;;;;;;1.19;100.00;98571.25;5077937;23;23438;-80
2022/01/06 05:00:30;;;;;;;16.40;9.30;;;;;;;1.18;100.00;98572.25;5073514;23;23202;-81
2022/01/06 05:02:57;;;;;;;20.17;9.87;;;;;;;1.22;100.00;98578.06;5072170;23;20207;-83
2022/01/06 05:05:24;;;;;;;20.20;10.80;;;;;;;1.22;100.00;98578.06;5099073;23;20558;-77
2022/01/06 05:07:50;;;;;;;17.83;10.30;;;;;;;1.27;100.00;98578.47;5072664;23;20248;-84
2022/01/06 05:10:17;;;;;;;18.90;10.33;;;;;;;1.21;100.00;98585.06;5074596;23;20294;-79
2022/01/06 05:12:45;;;;;;;21.23;9.93;;;;;;;1.20;100.00;98583.41;5048034;23;20204;-79
2022/01/06 05:15:13;;;;;;;17.77;10.47;;;;;;;1.16;100.00;98584.63;5056883;23;21062;-81
2022/01/06 05:17:41;;;;;;;17.27;10.87;;;;;;;1.15;100.00;98588.22;5054146;23;20205;-80
2022/01/06 05:20:08;;;;;;;22.53;11.97;;;;;;;1.11;100.00;98583.38;5063485;23;20586;-82
2022/01/06 05:22:42;;;;;;;20.67;10.63;;;;;;;1.14;100.00;98581.31;5079700;23;23377;-78
2022/01/06 05:25:10;;;;;;;21.97;11.37;;;;;;;1.13;100.00;98577.03;5070990;23;20213;-82
2022/01/06 05:27:37;;;;;;;23.70;11.43;;;;;;;1.12;100.00;98580.59;5072184;23;20609;-75
2022/01/06 05:30:06;;;;;;;21.97;11.37;;;;;;;1.15;100.00;98582.97;5071010;23;20199;-80
2022/01/06 05:32:33;;;;;;;23.63;11.73;;;;;;;1.17;100.00;98586.31;5054724;23;21545;-77
2022/01/06 05:35:00;;;;;;;22.10;11.00;;;;;;;1.17;100.00;98575.81;5077018;23;20203;-80
2022/01/06 05:37:26;;;;;;;18.03;10.30;;;;;;;1.22;100.00;98578.06;5078552;23;20586;-80
2022/01/06 05:39:53;;;;;;;20.10;11.07;;;;;;;1.21;100.00;98587.69;5098248;22;20292;-80
2022/01/06 05:42:19;;;;;;;17.87;10.63;;;;;;;1.22;100.00;98573.63;5117798;22;20209;-79
2022/01/06 05:44:46;;;;;;;18.90;10.53;;;;;;;1.27;100.00;98566.22;5115339;22;20675;-83
2022/01/06 05:47:13;;;;;;;17.03;9.83;;;;;;;1.29;100.00;98576.56;5100997;22;20239;-79
2022/01/06 05:49:39;;;;;;;15.93;8.20;;;;;;;1.30;100.00;98583.44;5112900;22;20217;-78
2022/01/06 05:52:07;;;;;;;12.03;7.43;;;;;;;1.30;100.00;98595.72;5120880;22;20674;-77
2022/01/06 05:54:33;;;;;;;14.80;7.33;;;;;;;1.29;100.00;98589.66;5112607;22;20202;-78
2022/01/06 05:57:00;;;;;;;10.30;5.57;;;;;;;1.27;100.00;98591.59;5118822;22;20235;-78
2022/01/06 05:59:29;;;;;;;14.50;7.23;;;;;;;1.24;100.00;98604.94;5120812;22;20202;-79
2022/01/06 06:01:55;;;;;;;10.13;5.50;;;;;;;1.28;100.00;98601.09;5110471;22;20249;-76
2022/01/06 06:04:22;;;;;;;10.27;5.90;;;;;;;1.22;100.00;98615.56;5118377;22;20202;-83
2022/01/06 06:06:48;;;;;;;12.20;6.30;;;;;;;1.23;100.00;98622.44;5116726;22;21742;-80
2022/01/06 06:09:15;;;;;;;10.03;5.27;;;;;;;1.29;100.00;98630.72;5135964;22;20276;-81
2022/01/06 06:11:41;;;;;;;11.27;5.30;;;;;;;1.18;100.00;98636.91;5129776;22;20262;-76
2022/01/06 06:14:08;;;;;;;10.53;5.40;;;;;;;1.17;100.00;98643.94;5134646;22;20205;-76
2022/01/06 06:16:34;;;;;;;11.10;6.00;;;;;;;1.17;100.00;98643.09;5115061;22;20222;-80
2022/01/06 06:19:01;;;;;;;9.23;4.93;;;;;;;1.15;100.00;98650.28;5094615;22;20811;-78
2022/01/06 06:21:28;;;;;;;11.37;5.70;;;;;;;1.11;100.00;98659.34;5115261;22;20202;-78
2022/01/06 06:23:54;;;;;;;13.10;6.00;;;;;;;1.17;100.00;98664.03;5108867;22;20277;-78
2022/01/06 06:26:21;;;;;;;10.57;5.27;;;;;;;1.15;100.00;98666.81;5110056;22;21151;-79
2022/01/06 06:28:47;;;;;;;11.37;5.40;;;;;;;1.14;100.00;98667.75;5110250;22;20201;-82
2022/01/06 06:31:14;;;;;;;12.07;5.57;;;;;;;1.16;100.00;98667.63;5120450;22;20721;-78
2022/01/06 06:33:40;;;;;;;11.93;6.03;;;;;;;1.17;100.00;98679.75;5110319;22;20249;-78
2022/01/06 06:36:07;;;;;;;12.20;5.10;;;;;;;1.12;100.00;98676.69;5118947;22;21187;-82
2022/01/06 06:38:33;;;;;;;10.40;5.63;;;;;;;1.14;100.00;98680.03;5113803;22;20584;-85
2022/01/06 06:41:00;;;;;;;10.23;5.57;;;;;;;1.15;100.00;98685.16;5093307;23;20210;-80
2022/01/06 06:43:26;;;;;;;13.10;5.80;;;;;;;1.09;100.00;98693.50;5113164;22;20608;-77
2022/01/06 06:45:53;;;;;;;9.50;4.77;;;;;;;1.08;100.00;98691.88;5111611;22;20626;-79
2022/01/06 06:48:21;;;;;;;13.53;5.37;;;;;;;1.12;100.00;98688.00;5117914;22;20204;-80
2022/01/06 06:50:48;;;;;;;12.30;6.03;;;;;;;1.11;100.00;98702.06;5110186;22;20209;-77
2022/01/06 06:53:14;;;;;;;11.40;5.73;;;;;;;1.15;100.00;98702.66;5111175;22;20209;-78
2022/01/06 06:55:41;;;;;;;11.93;5.90;;;;;;;1.13;100.00;98712.44;5146256;22;20205;-76
2022/01/06 06:58:08;;;;;;;9.20;5.13;;;;;;;1.15;100.00;98710.53;5120516;22;21148;-81
2022/01/06 07:00:34;;;;;;;10.37;5.50;;;;;;;1.13;100.00;98715.88;5116053;22;20202;-81
2022/01/06 07:03:01;;;;;;;10.93;5.87;;;;;;;1.10;100.00;98729.25;5120153;22;20543;-76
2022/01/06 07:05:29;;;;;;;10.93;5.43;;;;;;;1.15;100.00;98728.84;5133765;22;20211;-79
2022/01/06 07:07:56;;;;;;;8.40;5.20;;;;;;;1.18;100.00;98713.69;5112883;22;20213;-76
2022/01/06 07:10:22;;;;;;;10.17;5.20;;;;;;;1.09;100.00;98727.56;5144914;22;23204;-83
2022/01/06 07:12:49;;;;;;;10.13;4.53;;;;;;;1.09;100.00;98727.56;5155122;22;20997;-76
2022/01/06 07:15:17;;;;;;;10.87;4.50;;;;;;;1.14;100.00;98733.25;5130182;22;20708;-76
2022/01/06 07:17:44;;;;;;;8.70;4.77;;;;;;;1.19;100.00;98744.16;5113127;22;22350;-75
2022/01/06 07:20:11;;;;;;;12.07;5.57;;;;;;;1.18;100.00;98753.00;5158354;22;21173;-79
2022/01/06 07:22:38;;;;;;;11.80;5.43;;;;;;;1.21;100.00;98747.50;5139162;22;20677;-76
2022/01/06 07:25:05;;;;;;;12.30;4.20;;;;;;;1.16;100.00;98754.09;5120494;22;22850;-78
2022/01/06 07:27:32;;;;;;;9.33;4.23;;;;;;;1.17;100.00;98763.59;5110937;22;21694;-80
2022/01/06 07:29:59;;;;;;;7.83;3.97;;;;;;;1.11;100.00;98759.72;5114021;22;20202;-76
2022/01/06 07:32:25;;;;;;;8.07;3.43;;;;;;;1.07;100.00;98763.53;5112818;22;20334;-77
2022/01/06 07:34:55;;;;;;;7.17;4.20;;;;;;;1.09;100.00;98760.78;5113171;22;20461;-78
2022/01/06 07:37:22;;;;;;;7.83;3.47;;;;;;;1.07;100.00;98779.25;5142444;22;22092;-79
2022/01/06 07:39:48;;;;;;;7.43;3.67;;;;;;;0.91;100.00;98776.22;5111278;22;20757;-76
2022/01/06 07:42:15;;;;;;;10.50;4.30;;;;;;;0.90;100.00;98782.41;5142238;22;20202;-78
2022/01/06 07:44:46;;;;;;;8.50;3.83;;;;;;;0.97;100.00;98775.72;5101054;22;20370;-79
2022/01/06 07:47:13;;;;;;;6.60;3.50;;;;;;;0.96;100.00;98788.00;5123540;22;20369;-81
2022/01/06 07:49:40;;;;;;;9.73;3.37;;;;;;;0.89;100.00;98792.06;5083654;22;26160;-82
2022/01/06 07:52:07;;;;;;;9.47;3.43;;;;;;;0.84;100.00;98802.06;5123101;22;20364;-80
2022/01/06 07:54:37;;;;;;;5.90;3.10;;;;;;;0.82;100.00;98799.59;5149239;22;20205;-78
2022/01/06 07:57:04;;;;;;;7.60;3.00;;;;;;;0.86;100.00;98801.94;5140898;22;22331;-78
2022/01/06 07:59:30;;;;;;;6.80;2.60;;;;;;;0.80;100.00;98801.47;5089835;22;20205;-78
2022/01/06 08:01:57;;;;;;;5.33;2.77;;;;;;;0.76;100.00;98807.09;5124569;22;20211;-79
2022/01/06 08:04:23;;;;;;;7.10;2.73;;;;;;;0.75;100.00;98805.41;5133478;22;22711;-75
2022/01/06 08:06:50;;;;;;;6.50;2.77;;;;;;;0.69;100.00;98806.75;5112669;22;20264;-76
2022/01/06 08:09:16;;;;;;;9.50;3.07;;;;;;;0.66;100.00;98812.22;5132911;22;20221;-78
2022/01/06 08:11:43;;;;;;;11.10;2.97;;;;;;;0.68;100.00;98815.56;5089486;22;20734;-83
2022/01/06 08:14:10;;;;;;;6.50;3.53;;;;;;;0.67;100.00;98815.69;5111098;22;21185;-80
2022/01/06 08:16:36;;;;;;;6.23;3.57;;;;;;;0.71;100.00;98825.78;5127412;22;20256;-79
2022/01/06 08:19:03;;;;;;;8.13;3.93;;;;;;;0.71;100.00;98820.53;5147108;22;20212;-76
2022/01/06 08:21:30;;;;;;;6.07;2.87;;;;;;;0.68;100.00;98818.19;5089323;22;21651;-78
2022/01/06 08:23:56;;;;;;;8.67;3.20;;;;;;;0.68;100.00;98825.19;5119092;22;20935;-76
2022/01/06 08:26:23;;;;;;;7.57;3.53;;;;;;;0.61;100.00;98836.16;5131262;22;20214;-78
2022/01/06 08:28:49;;;;;;;6.30;2.87;;;;;;;0.55;100.00;98830.56;5102038;22;20209;-75
2022/01/06 08:31:16;;;;;;;7.57;3.60;;;;;;;0.58;100.00;98835.56;5103113;22;20205;-76
2022/01/06 08:33:44;;;;;;;9.13;3.97;;;;;;;0.61;100.00;98837.94;5113243;22;20206;-76
2022/01/06 08:36:11;;;;;;;7.27;3.63;;;;;;;0.57;100.00;98841.75;5132800;22;22852;-77
2022/01/06 08:38:38;;;;;;;6.90;3.57;;;;;;;0.53;100.00;98850.78;5114519;22;20206;-75
2022/01/06 08:41:04;;;;;;;7.80;3.70;;;;;;;0.60;100.00;98844.94;5109142;22;20693;-77
2022/01/06 08:43:34;;;;;;;7.13;3.33;;;;;;;0.61;100.00;98856.28;5110337;22;21206;-78
2022/01/06 08:46:00;;;;;;;10.23;4.03;;;;;;;0.68;100.00;98862.69;5110548;22;21187;-78
2022/01/06 08:48:27;;;;;;;11.47;3.80;;;;;;;0.80;99.92;98872.19;5136050;22;20213;-76
2022/01/06 08:50:54;;;;;;;8.93;3.67;;;;;;;0.90;99.24;98877.50;5111133;22;20627;-79
2022/01/06 08:53:22;;;;;;;5.67;3.20;;;;;;;0.82;97.10;98869.44;5121861;22;20890;-77
2022/01/06 08:55:48;;;;;;;8.47;3.50;;;;;;;0.81;97.15;98881.69;5092272;22;22489;-78
2022/01/06 08:58:16;;;;;;;8.40;4.07;;;;;;;0.93;96.47;98879.88;5106265;22;20202;-80
2022/01/06 09:00:43;;;;;;;10.73;3.47;;;;;;;0.94;96.79;98884.19;5118344;22;21719;-78
2022/01/06 09:03:10;;;;;;;10.73;5.10;;;;;;;0.93;96.20;98887.72;5110494;22;20450;-78
2022/01/06 09:05:37;;;;;;;11.33;5.47;;;;;;;0.78;95.87;98887.16;5125474;22;20207;-78
2022/01/06 09:08:04;;;;;;;7.43;4.60;;;;;;;0.87;95.96;98883.00;5137775;22;20214;-79
2022/01/06 09:10:36;;;;;;;11.63;5.37;;;;;;;0.88;95.50;98878.59;5062244;23;20664;-79
2022/01/06 09:13:23;;;;;;;12.00;4.93;;;;;;;0.89;94.59;98886.34;5119609;22;20212;-82
2022/01/06 09:15:49;;;;;;;8.73;4.60;;;;;;;0.97;95.02;98888.34;5119031;22;20236;-80
2022/01/06 09:18:16;;;;;;;8.87;4.70;;;;;;;0.94;95.30;98893.81;5131552;22;20640;-76
2022/01/06 09:20:43;;;;;;;11.93;4.97;;;;;;;0.82;95.85;98896.47;5118368;22;20202;-80
2022/01/06 09:23:09;;;;;;;9.17;3.90;;;;;;;0.75;96.36;98897.03;5096305;22;20209;-78
2022/01/06 09:25:36;;;;;;;11.13;4.60;;;;;;;0.69;97.32;98900.16;5110178;22;20202;-81
2022/01/06 09:28:03;;;;;;;11.80;4.60;;;;;;;0.79;97.45;98899.31;5118072;22;21566;-79
2022/01/06 09:30:29;;;;;;;11.27;5.13;;;;;;;0.91;97.36;98901.91;5123850;22;20201;-80
2022/01/06 09:32:56;;;;;;;7.90;4.60;;;;;;;0.85;97.11;98911.09;5121288;22;20202;-78
2022/01/06 09:35:24;;;;;;;9.40;4.33;;;;;;;0.79;98.66;98917.63;5108978;22;23201;-77
2022/01/06 09:37:50;;;;;;;11.80;4.70;;;;;;;0.77;98.75;98911.72;5127431;22;21107;-82
2022/01/06 09:40:17;;;;;;;11.90;4.83;;;;;;;0.77;98.27;98919.56;5100151;22;20221;-77
2022/01/06 09:42:44;;;;;;;11.47;5.03;;;;;;;0.76;98.32;98925.72;5136984;22;26153;-81
2022/01/06 09:45:11;;;;;;;10.20;4.40;;;;;;;0.73;98.88;98925.97;5125102;22;20200;-78
2022/01/06 09:47:38;;;;;;;8.57;3.70;;;;;;;0.74;98.28;98930.25;5123964;22;23684;-76
2022/01/06 09:50:08;;;;;;;8.73;4.43;;;;;;;0.71;98.18;98925.25;5145078;22;25182;-78
2022/01/06 09:52:36;;;;;;;13.67;4.87;;;;;;;0.70;97.01;98922.75;5125186;22;20202;-77
2022/01/06 09:55:04;;;;;;;11.63;4.60;;;;;;;0.70;97.57;98917.53;5127059;22;20335;-78
2022/01/06 09:57:31;;;;;;;9.27;4.10;;;;;;;0.69;98.23;98929.78;5116936;22;20250;-79
2022/01/06 09:59:57;;;;;;;13.77;4.57;;;;;;;0.71;99.13;98930.50;5120408;22;20205;-78
2022/01/06 10:02:35;;;;;;;10.33;4.63;;;;;;;0.59;98.27;98926.22;5153779;22;20206;-79
2022/01/06 10:05:03;;;;;;;9.50;4.63;;;;;;;0.62;98.72;98936.44;5097234;22;20516;-79
2022/01/06 10:07:40;;;;;;;11.57;4.87;;;;;;;0.58;98.88;98929.78;5136113;22;20218;-76
2022/01/06 10:10:12;;;;;;;13.13;5.43;;;;;;;0.63;98.44;98928.50;5129225;22;22878;-82
2022/01/06 10:12:40;;;;;;;14.90;5.90;;;;;;;0.63;98.17;98922.41;5136941;22;20205;-76
2022/01/06 10:15:23;;;;;;;18.93;6.17;;;;;;;0.65;98.10;98941.44;5116721;22;20208;-80
2022/01/06 10:17:49;;;;;;;14.20;6.00;;;;;;;0.64;98.21;98934.53;5120435;22;21456;-79
2022/01/06 10:20:22;;;;;;;20.13;7.17;;;;;;;0.55;98.24;98935.25;5113995;22;20232;-78
2022/01/06 10:22:51;;;;;;;26.63;8.10;;;;;;;0.62;98.82;98944.31;5094061;22;20686;-76
2022/01/06 10:25:20;;;;;;;14.80;6.40;;;;;;;0.58;98.58;98945.47;5136250;22;20201;-77
2022/01/06 10:27:49;;;;;;;16.30;6.30;;;;;;;0.54;99.37;98955.38;5134996;22;21169;-76
2022/01/06 10:30:15;;;;;;;18.37;6.90;;;;;;;0.57;99.96;98955.13;5102399;22;20206;-76
2022/01/06 10:32:43;;;;;;;18.77;6.50;;;;;;;0.60;98.93;98961.91;5098167;22;20276;-79
2022/01/06 10:35:10;;;;;;;17.63;6.87;;;;;;;0.55;99.22;98956.19;5116160;22;20211;-78
2022/01/06 10:37:42;;;;;;;17.83;6.53;;;;;;;0.55;99.26;98958.81;5113350;22;20214;-78
2022/01/06 10:40:13;;;;;;;17.03;6.57;;;;;;;0.59;98.98;98962.88;5138489;22;20710;-82
2022/01/06 10:42:42;;;;;;;18.70;6.93;;;;;;;0.54;99.08;98962.38;5125850;22;20565;-77
2022/01/06 10:45:14;;;;;;;25.13;7.70;;;;;;;0.44;99.63;98964.03;5137246;22;20202;-77
2022/01/06 10:47:46;;;;;;;22.10;8.57;;;;;;;0.32;100.00;98977.09;5130804;22;21206;-79
2022/01/06 10:50:22;;;;;;;23.83;7.53;;;;;;;0.24;100.00;98974.22;5131959;22;20265;-80
2022/01/06 10:52:52;;;;;;;19.83;7.43;;;;;;;0.16;100.00;98977.44;5123747;22;20206;-77
2022/01/06 10:55:43;;;;;;;17.20;7.53;;;;;;;0.15;100.00;98985.38;5116804;22;20304;-79
2022/01/06 10:58:12;;;;;;;20.40;8.13;;;;;;;0.11;100.00;98978.72;5118389;22;22655;-80
2022/01/06 11:00:43;;;;;;;20.23;6.97;;;;;;;0.06;100.00;98981.66;5116093;22;20206;-78
2022/01/06 11:03:21;;;;;;;20.77;6.17;;;;;;;-0.06;100.00;98983.41;5088978;22;20354;-80
2022/01/06 11:05:53;;;;;;;19.67;6.87;;;;;;;-0.12;100.00;98981.22;5116382;22;20209;-77
2022/01/06 11:08:28;;;;;;;16.20;7.10;;;;;;;-0.17;100.00;98980.75;5113284;22;20239;-82
2022/01/06 11:13:44;;;;;;;17.07;5.87;;;;;;;-0.12;100.00;98978.63;5228850;22;20212;-80
2022/01/06 11:16:14;;;;;;;16.67;6.83;;;;;;;-0.06;100.00;98983.41;5174195;23;21534;-86
2022/01/06 11:18:48;;;;;;;13.13;6.37;;;;;;;0.00;100.00;98982.13;5128725;22;20288;-79
2022/01/06 11:21:17;;;;;;;21.00;7.40;;;;;;;-0.01;100.00;98986.50;5124727;22;20209;-83
2022/01/06 11:23:44;;;;;;;19.83;6.70;;;;;;;-0.02;100.00;98995.31;5112546;22;20206;-80
2022/01/06 11:26:21;;;;;;;18.87;7.20;;;;;;;-0.03;100.00;98990.19;5102635;22;20430;-77
2022/01/06 11:28:59;;;;;;;16.43;7.10;;;;;;;-0.04;100.00;98991.16;5101050;22;20399;-78
2022/01/06 11:31:28;;;;;;;18.13;7.87;;;;;;;-0.07;100.00;98988.75;5142789;22;21190;-80
2022/01/06 11:33:56;;;;;;;21.90;7.47;;;;;;;-0.10;100.00;98992.41;5099386;22;20205;-76
2022/01/06 11:36:31;;;;;;;20.03;8.27;;;;;;;-0.07;100.00;99002.69;5117982;22;20822;-79
2022/01/06 11:39:04;;;;;;;23.23;8.70;;;;;;;-0.02;100.00;99000.53;5106477;22;20998;-78